Latest Weather Observations for Pallamana

IDS60901

Issued at 4:41 pm CST Saturday 30 July 2016 (issued every 10 minutes, with the page automatically refreshed every 10 minutes)

About weather observations | Map of Adelaide area stations | Latest observations for Adelaide area | Other Formats
Station Details ID: 024584 Name: PALLAMANA AERODROME Lat: -35.06 Lon: 139.23 Height: 45.0 m
Data from the previous 72 hours. | See also: Recent months at Pallamana
Date/Time
CST
Temp
°C
App
Temp
°C
Dew
Point
°C
Rel
Hum
%
Delta-T
°C
Wind Press
QNH
hPa
Press
MSL
hPa
Rain since
9am
mm
Dir  Spd
km/h
Gust
km/h
Spd
kts
Gust
kts
30/04:30pm 17.0 10.3 7.4 53 4.8 NNW 32 43 17 23 1013.8 1013.8 0.0
30/04:00pm 17.0 10.9 6.7 50 5.1 NNW 28 46 15 25 1013.6 1013.6 0.0
30/03:30pm 16.6 12.3 7.2 54 4.7 N 19 24 10 13 1013.7 1013.7 0.0
30/03:00pm 16.6 10.2 6.9 52 4.8 N 30 37 16 20 1013.2 1013.2 0.0
30/02:37pm 16.6 9.8 6.7 52 4.9 NNW 32 50 17 27 1013.4 1013.4 0.0
30/02:30pm 16.7 8.3 5.8 48 5.3 NNW 39 50 21 27 1013.5 1013.5 0.0
30/02:00pm 15.7 10.7 7.9 59 3.9 N 24 33 13 18 1014.2 1014.2 0.0
30/01:30pm 15.8 10.0 8.1 60 3.9 N 28 35 15 19 1015.0 1015.0 0.0
30/01:13pm 16.5 10.5 7.0 53 4.7 NNW 28 46 15 25 1015.3 1015.3 0.0
30/01:00pm 16.1 10.8 8.4 60 3.9 N 26 32 14 17 1015.4 1015.4 0.0
30/12:30pm 15.4 10.0 8.0 61 3.7 N 26 32 14 17 1016.2 1016.2 0.0
30/12:00pm 15.5 11.2 7.9 60 3.8 NNE 20 26 11 14 1016.8 1016.8 0.0
30/11:30am 15.0 10.3 7.8 62 3.6 NNE 22 30 12 16 1017.4 1017.4 0.0
30/11:00am 14.6 10.2 7.5 62 3.5 NNE 20 28 11 15 1017.9 1017.9 0.0
30/10:30am 14.5 9.3 7.4 62 3.5 N 24 30 13 16 1018.2 1018.2 0.0
30/10:00am 14.5 8.5 6.9 60 3.7 NNW 28 41 15 22 1018.4 1018.4 0.0
30/09:57am 14.6 8.5 6.5 58 3.9 N 28 41 15 22 1018.4 1018.4 0.0
30/09:30am 12.2 8.3 8.6 78 1.8 N 19 22 10 12 1018.6 1018.7 0.0
30/09:00am 10.3 6.9 7.6 83 1.3 N 15 20 8 11 1018.9 1019.0 0.0
30/08:30am 8.4 5.6 6.9 90 0.7 N 11 15 6 8 1018.9 1019.0 0.0
30/08:00am 7.2 4.2 5.9 91 0.6 N 11 15 6 8 1019.1 1019.2 0.0
30/07:30am 6.8 3.0 5.7 93 0.5 N 15 20 8 11 1019.2 1019.3 0.0
30/07:00am 6.2 3.0 5.1 93 0.5 N 11 17 6 9 1019.3 1019.4 0.0
30/06:30am 5.9 3.1 5.0 94 0.4 N 9 11 5 6 1019.5 1019.6 0.0
30/06:00am 6.4 3.3 5.7 95 0.3 N 11 15 6 8 1019.5 1019.6 0.0
30/05:30am 6.3 4.2 5.6 95 0.3 NNW 6 7 3 4 1019.7 1019.8 0.0
30/05:00am 6.4 4.1 5.7 95 0.3 NNW 7 9 4 5 1019.6 1019.7 0.0
30/04:30am 6.7 4.1 6.0 95 0.3 N 9 11 5 6 1019.9 1020.0 0.0
30/04:00am 6.7 4.6 6.0 95 0.3 N 6 9 3 5 1020.1 1020.2 0.0
30/03:30am 6.9 4.7 6.2 95 0.3 NNW 7 9 4 5 1020.4 1020.5 0.0
30/03:00am 7.0 4.4 6.3 95 0.3 NNW 9 11 5 6 1020.7 1020.8 0.0
30/02:30am 7.0 4.1 6.3 95 0.3 NNW 11 13 6 7 1021.1 1021.2 0.0
30/02:00am 5.2 2.7 4.5 95 0.3 N 7 9 4 5 1021.3 1021.4 0.0
30/01:30am 6.5 4.5 6.1 97 0.2 NNW 6 7 3 4 1021.7 1021.8 0.0
30/01:00am 6.8 5.9 5.9 94 0.4 CALM 0 6 0 3 1021.9 1022.0 0.0
30/12:30am 7.5 5.6 6.6 94 0.4 NNW 6 7 3 4 1022.2 1022.3 0.0
30/12:00am 7.8 5.9 6.9 94 0.4 N 6 9 3 5 1022.6 1022.7 0.0
 
Date/Time
CST
Temp
°C
App
Temp
°C
Dew
Point
°C
Rel
Hum
%
Delta-T
°C
Wind Press
QNH
hPa
Press
MSL
hPa
Rain since
9am
mm
Dir  Spd
km/h
Gust
km/h
Spd
kts
Gust
kts
29/11:30pm 7.5 6.3 6.6 94 0.4 N 2 6 1 3 1022.6 1022.7 0.0
29/11:00pm 7.9 6.1 7.0 94 0.4 NNW 6 7 3 4 1022.8 1022.9 0.0
29/10:30pm 7.5 5.0 6.6 94 0.4 N 9 9 5 5 1022.8 1022.9 0.0
29/10:00pm 7.3 5.3 6.2 93 0.5 NNE 6 6 3 3 1023.2 1023.3 0.0
29/09:30pm 6.9 5.2 5.8 93 0.5 NNE 4 7 2 4 1023.3 1023.4 0.0
29/09:00pm 7.9 5.8 6.8 93 0.5 NW 7 9 4 5 1023.1 1023.2 0.0
29/08:30pm 8.4 6.4 6.9 90 0.7 NW 7 11 4 6 1023.1 1023.2 0.0
29/08:00pm 7.6 5.4 6.0 90 0.7 WNW 7 11 4 6 1023.4 1023.5 0.0
29/07:30pm 8.9 6.9 7.0 88 0.9 W 7 9 4 5 1023.0 1023.1 0.0
29/07:00pm 9.4 8.8 7.5 88 0.9 CALM 0 2 0 1 1022.9 1023.0 0.0
29/06:30pm 11.2 8.5 7.4 77 1.8 NW 11 13 6 7 1022.7 1022.8 0.0
29/06:00pm 11.9 8.9 7.8 76 2.0 WNW 13 13 7 7 1022.7 1022.8 0.0
29/05:30pm 13.4 11.3 8.1 70 2.6 NW 9 9 5 5 1022.6 1022.7 0.0
29/05:00pm 15.1 13.3 8.1 63 3.5 WNW 7 11 4 6 1022.7 1022.8 0.0
29/04:30pm 15.8 14.0 7.8 59 4.0 NW 7 9 4 5 1022.5 1022.6 0.0
29/04:00pm 16.4 14.0 7.1 54 4.6 NW 9 13 5 7 1022.5 1022.6 0.0
29/03:30pm 16.4 14.1 7.6 56 4.4 NNW 9 15 5 8 1022.5 1022.6 0.0
29/03:00pm 16.4 15.0 9.7 64 3.5 SE 7 13 4 7 1022.8 1022.9 0.0
29/02:30pm 15.5 14.2 9.3 66 3.2 SSE 6 9 3 5 1022.9 1023.0 0.0
29/02:00pm 15.4 13.9 9.2 66 3.2 ESE 7 11 4 6 1023.1 1023.2 0.0
29/01:30pm 14.9 13.7 9.7 71 2.7 SSE 6 11 3 6 1023.6 1023.7 0.0
29/01:00pm 14.5 12.9 8.8 68 2.9 ESE 7 11 4 6 1023.7 1023.8 0.0
29/12:30pm 14.2 12.2 8.6 69 2.8 ESE 9 11 5 6 1024.0 1024.1 0.0
29/12:00pm 14.0 12.4 8.8 71 2.6 SSE 7 13 4 7 1024.8 1024.9 0.0
29/11:30am 13.5 11.5 8.5 72 2.5 ESE 9 13 5 7 1025.1 1025.2 0.0
29/11:00am 12.6 10.8 8.1 74 2.2 NE 7 11 4 6 1025.5 1025.6 0.0
29/10:30am 12.8 10.7 8.1 73 2.3 N 9 15 5 8 1025.6 1025.7 0.0
29/10:00am 12.0 9.8 7.9 76 2.0 N 9 11 5 6 1025.9 1026.0 0.0
29/09:30am 11.2 9.3 9.2 87 1.0 NNE 9 13 5 7 1025.9 1026.0 0.0
29/09:00am 10.1 8.4 8.2 88 0.9 NNW 7 7 4 4 1026.4 1026.5 0.0
29/08:30am 9.3 7.7 7.8 90 0.7 NE 6 9 3 5 1025.7 1025.8 0.0
29/08:00am 8.7 7.0 7.4 91 0.6 E 6 9 3 5 1026.1 1026.2 0.0
29/07:30am 8.1 7.0 7.0 93 0.5 NNW 2 6 1 3 1025.7 1025.8 0.0
29/07:00am 8.6 6.6 7.1 90 0.7 NNW 7 11 4 6 1025.4 1025.5 0.0
29/06:30am 8.9 6.6 7.6 91 0.6 N 9 15 5 8 1024.9 1025.0 0.0
29/06:00am 8.4 5.7 7.3 93 0.5 NNE 11 13 6 7 1024.4 1024.5 0.0
29/05:30am 9.1 6.5 7.8 92 0.6 NNW 11 15 6 8 1024.5 1024.6 0.0
29/05:00am 9.2 6.2 7.9 92 0.6 N 13 15 7 8 1024.7 1024.8 0.0
29/04:30am 9.3 6.7 7.8 90 0.7 N 11 15 6 8 1024.7 1024.8 0.0
29/04:00am 9.3 6.7 7.8 90 0.7 N 11 13 6 7 1024.8 1024.9 0.0
29/03:30am 9.4 7.2 7.9 90 0.7 N 9 11 5 6 1025.1 1025.2 0.0
29/03:00am 9.1 6.8 7.6 90 0.7 N 9 11 5 6 1024.9 1025.0 0.0
29/02:30am 9.5 7.3 7.8 89 0.8 NNW 9 13 5 7 1025.2 1025.3 0.0
29/02:00am 9.4 6.8 7.7 89 0.8 N 11 15 6 8 1025.4 1025.5 0.0
29/01:30am 9.2 6.6 7.7 90 0.7 N 11 13 6 7 1025.5 1025.6 0.0
29/01:00am 9.4 6.7 7.5 88 0.9 N 11 13 6 7 1025.6 1025.7 0.0
29/12:30am 9.6 6.9 7.3 85 1.1 N 11 13 6 7 1026.0 1026.1 0.0
29/12:00am 10.2 7.3 6.6 78 1.7 W 11 17 6 9 1026.8 1026.9 0.0
 
Date/Time
CST
Temp
°C
App
Temp
°C
Dew
Point
°C
Rel
Hum
%
Delta-T
°C
Wind Press
QNH
hPa
Press
MSL
hPa
Rain since
9am
mm
Dir  Spd
km/h
Gust
km/h
Spd
kts
Gust
kts
28/11:30pm 9.5 7.1 6.9 84 1.2 NW 9 11 5 6 1026.4 1026.5 0.0
28/11:00pm 8.0 5.4 6.0 87 0.9 WNW 9 15 5 8 1026.5 1026.6 0.0
28/10:30pm 5.0 2.5 4.0 93 0.4 NNW 6 9 3 5 1026.4 1026.5 0.0
28/10:00pm 4.9 2.5 4.2 95 0.3 NNW 6 7 3 4 1026.5 1026.6 0.0
28/09:30pm 5.4 2.4 4.2 92 0.5 NNW 9 11 5 6 1026.6 1026.7 0.0
28/09:00pm 5.1 2.0 3.7 91 0.6 N 9 11 5 6 1027.0 1027.1 0.0
28/08:30pm 5.4 3.3 4.0 91 0.6 NW 4 7 2 4 1027.2 1027.3 0.0
28/08:00pm 8.2 5.4 5.0 80 1.4 NW 9 11 5 6 1027.3 1027.4 0.0
28/07:30pm 6.7 4.1 4.1 83 1.1 NW 7 11 4 6 1027.3 1027.4 0.0
28/07:00pm 8.1 5.3 5.2 82 1.3 NNW 9 11 5 6 1027.2 1027.3 0.0
28/06:30pm 7.5 5.3 5.2 85 1.0 NW 6 9 3 5 1027.1 1027.2 0.0
28/06:00pm 9.7 7.0 5.7 76 1.8 NW 9 11 5 6 1027.1 1027.2 0.0
28/05:30pm 11.2 8.6 6.3 72 2.3 WNW 9 13 5 7 1026.9 1027.0 0.0
28/05:00pm 13.0 10.6 7.0 67 2.9 WNW 9 13 5 7 1026.8 1026.9 0.0
28/04:30pm 13.2 9.9 6.2 62 3.3 W 13 17 7 9 1026.8 1026.9 0.0
28/04:00pm 13.8 10.9 6.5 61 3.5 WNW 11 13 6 7 1026.9 1027.0 0.0
28/03:30pm 14.5 10.9 6.6 59 3.8 W 15 24 8 13 1026.9 1027.0 0.0
28/03:00pm 13.9 9.8 6.4 60 3.6 W 17 24 9 13 1027.0 1027.1 0.0
28/02:30pm 13.7 9.6 6.1 60 3.6 W 17 22 9 12 1026.8 1026.9 0.0
28/02:00pm 13.6 9.0 6.5 62 3.4 W 20 28 11 15 1027.0 1027.1 0.0
28/01:30pm 13.9 10.2 6.4 60 3.6 NW 15 20 8 11 1027.2 1027.3 0.0
28/01:00pm 13.9 10.3 6.9 62 3.4 W 15 19 8 10 1027.5 1027.6 0.0
28/12:30pm 13.6 9.6 6.5 62 3.4 WNW 17 24 9 13 1027.8 1027.9 0.0
28/12:00pm 13.4 10.6 7.0 65 3.1 W 11 15 6 8 1028.2 1028.3 0.0
28/11:30am 13.4 9.7 6.5 63 3.3 WNW 15 24 8 13 1028.7 1028.8 0.0
28/11:00am 13.0 9.5 7.0 67 2.9 W 15 20 8 11 1029.1 1029.2 0.0
28/10:30am 12.6 10.4 7.9 73 2.3 NW 9 11 5 6 1029.2 1029.3 0.0
28/10:00am 12.1 10.5 8.7 80 1.7 NNW 7 11 4 6 1029.3 1029.4 0.0
28/09:30am 11.9 10.3 8.9 82 1.5 NW 7 13 4 7 1029.2 1029.3 0.0
28/09:00am 11.3 9.4 9.1 86 1.1 NW 9 11 5 6 1029.0 1029.1 0.0
28/08:30am 10.5 8.9 8.7 89 0.9 NW 7 9 4 5 1029.0 1029.1 0.0
28/08:00am 9.9 8.2 8.5 91 0.7 WNW 7 9 4 5 1028.7 1028.8 0.0
28/07:30am 9.4 7.6 8.1 92 0.6 NW 7 9 4 5 1028.3 1028.4 0.0
28/07:00am 9.6 7.8 8.1 90 0.7 NW 7 11 4 6 1028.0 1028.1 0.0
28/06:30am 9.9 7.7 8.0 88 0.9 WNW 9 11 5 6 1027.8 1027.9 0.0
28/06:00am 9.4 7.5 7.5 88 0.9 WNW 7 9 4 5 1027.7 1027.8 0.0
28/05:30am 8.8 7.0 7.3 90 0.7 WNW 6 9 3 5 1027.4 1027.5 0.0
28/05:00am 8.7 7.7 7.2 90 0.7 WSW 2 7 1 4 1027.2 1027.3 0.0
28/04:30am 9.0 7.0 7.1 88 0.9 NW 7 7 4 4 1027.1 1027.2 0.0
28/04:00am 9.1 7.1 7.2 88 0.9 W 7 9 4 5 1027.1 1027.2 0.0
28/03:30am 9.3 6.9 7.2 87 1.0 NNW 9 11 5 6 1027.1 1027.2 0.0
28/03:00am 9.3 6.9 7.2 87 1.0 NNW 9 11 5 6 1027.1 1027.2 0.0
28/02:30am 9.6 7.2 7.0 84 1.2 NNW 9 13 5 7 1027.3 1027.4 0.0
28/02:00am 9.4 7.1 7.3 87 1.0 NW 9 11 5 6 1027.4 1027.5 0.0
28/01:30am 9.2 6.9 7.3 88 0.9 NNW 9 11 5 6 1027.2 1027.3 0.0
28/01:00am 9.3 7.0 7.4 88 0.9 NW 9 11 5 6 1027.3 1027.4 0.0
28/12:30am 9.3 8.8 7.8 90 0.7 CALM 0 0 0 0 1027.0 1027.1 0.0
28/12:00am 9.7 8.3 7.4 85 1.1 W 4 6 2 3 1027.0 1027.1 0.0
 
Date/Time
CST
Temp
°C
App
Temp
°C
Dew
Point
°C
Rel
Hum
%
Delta-T
°C
Wind Press
QNH
hPa
Press
MSL
hPa
Rain since
9am
mm
Dir  Spd
km/h
Gust
km/h
Spd
kts
Gust
kts
27/11:30pm 10.0 8.3 7.5 84 1.2 WNW 6 7 3 4 1027.2 1027.3 0.0
27/11:00pm 10.3 8.3 7.3 82 1.4 W 7 9 4 5 1027.2 1027.3 0.0
27/10:30pm 11.2 8.0 7.0 75 2.0 WNW 13 19 7 10 1027.2 1027.3 0.0
27/10:00pm 10.7 8.6 6.6 76 1.9 W 7 9 4 5 1027.2 1027.3 0.0
27/09:30pm 10.5 8.0 6.7 77 1.8 WNW 9 13 5 7 1027.3 1027.4 0.0
27/09:00pm 11.1 7.8 6.4 73 2.2 WNW 13 17 7 9 1027.4 1027.5 0.0
27/08:30pm 9.5 7.1 6.9 84 1.2 NW 9 9 5 5 1027.3 1027.4 0.0
27/08:00pm 9.8 7.8 7.3 84 1.2 WNW 7 7 4 4 1027.1 1027.2 0.0
27/07:30pm 10.2 7.6 6.3 77 1.8 WNW 9 11 5 6 1027.0 1027.1 0.0
27/07:00pm 10.3 7.6 5.7 73 2.1 WNW 9 11 5 6 1026.9 1027.0 0.0
27/06:30pm 10.8 8.5 5.6 70 2.4 WNW 7 9 4 5 1026.5 1026.6 0.0
27/06:00pm 11.2 8.9 5.5 68 2.6 W 7 11 4 6 1026.2 1026.3 0.0
27/05:30pm 11.3 7.7 5.2 66 2.8 W 13 17 7 9 1025.7 1025.8 0.0
27/05:00pm 12.2 7.7 4.2 58 3.6 W 17 24 9 13 1025.5 1025.6 0.0

Latest Capital City Observations: Canberra | Sydney | Melbourne | Brisbane | Adelaide | Perth | Hobart | Darwin

Other Formats:

Comma delimited format used in spreadsheet applications
http://www.bom.gov.au/fwo/IDS60901/IDS60901.95818.axf

JavaScript Object Notation format (JSON) in row-major order
http://www.bom.gov.au/fwo/IDS60901/IDS60901.95818.json